Terminal Aerodrome Forecast
Issued by NWS

Home | Current Version | Previous Version | Text Only | Print | Product List | Glossary On
Versions: 1 2 3 4 5 6 7 8 9 10 11 12 13 14 15
080
FTUS43 KLSX 230520
TAFUIN
TAF
KUIN 230520Z 2306/2406 18010KT P6SM BKN050
     FM230900 22009KT P6SM VCTS BKN045CB
      TEMPO 2309/2311 5SM TSRA OVC020CB
     FM231200 32009KT P6SM VCSH OVC015
     FM231500 36014G21KT P6SM BKN025
     FM231600 36014KT P6SM SCT250=

USA.gov is the U.S. government's official web portal to all federal, state and local government web resources and services.